sensor_id;sensor_type;location;lat;lon;timestamp;temperature;humidity
16801;DHT22;8518;53.236;10.384;2022-12-13T00:01:21;-6.30;99.90
16801;DHT22;8518;53.236;10.384;2022-12-13T00:03:47;-6.30;99.90
16801;DHT22;8518;53.236;10.384;2022-12-13T00:06:13;-6.30;99.90
16801;DHT22;8518;53.236;10.384;2022-12-13T00:08:39;-6.20;99.90
16801;DHT22;8518;53.236;10.384;2022-12-13T00:11:07;-6.20;99.90
16801;DHT22;8518;53.236;10.384;2022-12-13T00:13:35;-6.10;99.90
16801;DHT22;8518;53.236;10.384;2022-12-13T00:16:03;-6.10;99.90
16801;DHT22;8518;53.236;10.384;2022-12-13T00:18:29;-6.10;99.90
16801;DHT22;8518;53.236;10.384;2022-12-13T00:20:55;-6.00;99.90
16801;DHT22;8518;53.236;10.384;2022-12-13T00:23:21;-6.00;99.90
16801;DHT22;8518;53.236;10.384;2022-12-13T00:25:47;-6.00;99.90
16801;DHT22;8518;53.236;10.384;2022-12-13T00:28:13;-5.90;99.90
16801;DHT22;8518;53.236;10.384;2022-12-13T00:30:39;-6.00;99.90
16801;DHT22;8518;53.236;10.384;2022-12-13T00:33:05;-5.90;99.90
16801;DHT22;8518;53.236;10.384;2022-12-13T00:35:40;-5.80;99.90
16801;DHT22;8518;53.236;10.384;2022-12-13T00:38:06;-5.80;99.90
16801;DHT22;8518;53.236;10.384;2022-12-13T00:40:33;-5.80;99.90
16801;DHT22;8518;53.236;10.384;2022-12-13T00:42:59;-5.80;99.90
16801;DHT22;8518;53.236;10.384;2022-12-13T00:45:25;-5.80;99.90
16801;DHT22;8518;53.236;10.384;2022-12-13T00:47:50;-5.80;99.90
16801;DHT22;8518;53.236;10.384;2022-12-13T00:50:16;-5.80;99.90
16801;DHT22;8518;53.236;10.384;2022-12-13T00:52:42;-5.80;99.90
16801;DHT22;8518;53.236;10.384;2022-12-13T00:55:08;-5.70;99.90
16801;DHT22;8518;53.236;10.384;2022-12-13T00:57:33;-5.70;99.90
16801;DHT22;8518;53.236;10.384;2022-12-13T00:59:59;-5.60;99.90
16801;DHT22;8518;53.236;10.384;2022-12-13T01:02:25;-5.60;99.90
16801;DHT22;8518;53.236;10.384;2022-12-13T01:04:51;-5.50;99.90
16801;DHT22;8518;53.236;10.384;2022-12-13T01:07:17;-5.40;99.90
16801;DHT22;8518;53.236;10.384;2022-12-13T01:09:42;-5.40;99.90
16801;DHT22;8518;53.236;10.384;2022-12-13T01:12:09;-5.50;99.90
16801;DHT22;8518;53.236;10.384;2022-12-13T01:14:39;-5.50;99.90
16801;DHT22;8518;53.236;10.384;2022-12-13T01:17:05;-5.70;99.90
16801;DHT22;8518;53.236;10.384;2022-12-13T01:19:32;-5.90;99.90
16801;DHT22;8518;53.236;10.384;2022-12-13T01:22:00;-5.90;99.90
16801;DHT22;8518;53.236;10.384;2022-12-13T01:24:27;-6.00;99.90
16801;DHT22;8518;53.236;10.384;2022-12-13T01:26:53;-6.00;99.90
16801;DHT22;8518;53.236;10.384;2022-12-13T01:29:20;-6.10;99.90
16801;DHT22;8518;53.236;10.384;2022-12-13T01:31:46;-6.10;99.90
16801;DHT22;8518;53.236;10.384;2022-12-13T01:34:15;-6.00;99.90
16801;DHT22;8518;53.236;10.384;2022-12-13T01:36:46;-6.00;99.90
16801;DHT22;8518;53.236;10.384;2022-12-13T01:39:13;-6.00;99.90
16801;DHT22;8518;53.236;10.384;2022-12-13T01:41:39;-6.00;99.90
16801;DHT22;8518;53.236;10.384;2022-12-13T01:44:54;-6.00;99.90
16801;DHT22;8518;53.236;10.384;2022-12-13T01:46:52;-6.00;99.90
16801;DHT22;8518;53.236;10.384;2022-12-13T01:49:17;-6.00;99.90
16801;DHT22;8518;53.236;10.384;2022-12-13T01:51:58;-6.00;99.90
16801;DHT22;8518;53.236;10.384;2022-12-13T01:54:31;-6.00;99.90
16801;DHT22;8518;53.236;10.384;2022-12-13T01:56:58;-6.00;99.90
16801;DHT22;8518;53.236;10.384;2022-12-13T01:59:25;-5.90;99.90
16801;DHT22;8518;53.236;10.384;2022-12-13T02:01:52;-5.90;99.90
16801;DHT22;8518;53.236;10.384;2022-12-13T02:04:44;-5.90;99.90
16801;DHT22;8518;53.236;10.384;2022-12-13T02:07:15;-5.90;99.90
16801;DHT22;8518;53.236;10.384;2022-12-13T02:09:41;-5.90;99.90
16801;DHT22;8518;53.236;10.384;2022-12-13T02:12:09;-5.90;99.90
16801;DHT22;8518;53.236;10.384;2022-12-13T02:14:35;-5.90;99.90
16801;DHT22;8518;53.236;10.384;2022-12-13T02:17:08;-5.80;99.90
16801;DHT22;8518;53.236;10.384;2022-12-13T02:30:41;-5.90;99.90
16801;DHT22;8518;53.236;10.384;2022-12-13T02:41:33;-6.00;99.90
16801;DHT22;8518;53.236;10.384;2022-12-13T02:46:36;-6.00;99.90
16801;DHT22;8518;53.236;10.384;2022-12-13T02:49:05;-6.00;99.90
16801;DHT22;8518;53.236;10.384;2022-12-13T02:51:32;-6.00;99.90
16801;DHT22;8518;53.236;10.384;2022-12-13T02:53:59;-6.00;99.90
16801;DHT22;8518;53.236;10.384;2022-12-13T02:56:24;-6.00;99.90
16801;DHT22;8518;53.236;10.384;2022-12-13T02:58:52;-6.00;99.90
16801;DHT22;8518;53.236;10.384;2022-12-13T03:04:12;-6.00;99.90
16801;DHT22;8518;53.236;10.384;2022-12-13T03:12:12;-6.10;99.90
16801;DHT22;8518;53.236;10.384;2022-12-13T03:15:16;-6.10;99.90
16801;DHT22;8518;53.236;10.384;2022-12-13T03:18:06;-6.20;99.90
16801;DHT22;8518;53.236;10.384;2022-12-13T03:20:45;-6.40;99.90
16801;DHT22;8518;53.236;10.384;2022-12-13T03:23:12;-6.40;99.90
16801;DHT22;8518;53.236;10.384;2022-12-13T03:25:38;-6.50;99.90
16801;DHT22;8518;53.236;10.384;2022-12-13T03:28:04;-6.60;99.90
16801;DHT22;8518;53.236;10.384;2022-12-13T03:30:31;-6.70;99.90
16801;DHT22;8518;53.236;10.384;2022-12-13T03:32:57;-6.70;99.90
16801;DHT22;8518;53.236;10.384;2022-12-13T03:35:22;-6.70;99.90
16801;DHT22;8518;53.236;10.384;2022-12-13T03:37:49;-6.70;99.90
16801;DHT22;8518;53.236;10.384;2022-12-13T03:40:16;-6.70;99.90
16801;DHT22;8518;53.236;10.384;2022-12-13T03:42:42;-6.80;99.90
16801;DHT22;8518;53.236;10.384;2022-12-13T03:45:08;-6.70;99.90
16801;DHT22;8518;53.236;10.384;2022-12-13T03:47:34;-6.70;99.90
16801;DHT22;8518;53.236;10.384;2022-12-13T03:50:00;-6.70;99.90
16801;DHT22;8518;53.236;10.384;2022-12-13T03:52:25;-6.70;99.90
16801;DHT22;8518;53.236;10.384;2022-12-13T03:54:51;-6.70;99.90
16801;DHT22;8518;53.236;10.384;2022-12-13T03:57:17;-6.60;99.90
16801;DHT22;8518;53.236;10.384;2022-12-13T03:59:42;-6.60;99.90
16801;DHT22;8518;53.236;10.384;2022-12-13T04:02:08;-6.50;99.90
16801;DHT22;8518;53.236;10.384;2022-12-13T04:04:34;-6.50;99.90
16801;DHT22;8518;53.236;10.384;2022-12-13T04:06:59;-6.50;99.90
16801;DHT22;8518;53.236;10.384;2022-12-13T04:09:25;-6.50;99.90
16801;DHT22;8518;53.236;10.384;2022-12-13T04:11:50;-6.40;99.90
16801;DHT22;8518;53.236;10.384;2022-12-13T04:14:35;-6.40;99.90
16801;DHT22;8518;53.236;10.384;2022-12-13T04:17:00;-6.40;99.90
16801;DHT22;8518;53.236;10.384;2022-12-13T04:19:26;-6.40;99.90
16801;DHT22;8518;53.236;10.384;2022-12-13T04:21:52;-6.40;99.90
16801;DHT22;8518;53.236;10.384;2022-12-13T04:24:19;-6.40;99.90
16801;DHT22;8518;53.236;10.384;2022-12-13T04:26:48;-6.40;99.90
16801;DHT22;8518;53.236;10.384;2022-12-13T04:29:14;-6.40;99.90
16801;DHT22;8518;53.236;10.384;2022-12-13T04:31:39;-6.30;99.90
16801;DHT22;8518;53.236;10.384;2022-12-13T04:34:05;-6.40;99.90
16801;DHT22;8518;53.236;10.384;2022-12-13T04:36:31;-6.30;99.90
16801;DHT22;8518;53.236;10.384;2022-12-13T04:38:56;-6.30;99.90
16801;DHT22;8518;53.236;10.384;2022-12-13T04:41:22;-6.30;99.90
16801;DHT22;8518;53.236;10.384;2022-12-13T04:43:52;-6.30;99.90
16801;DHT22;8518;53.236;10.384;2022-12-13T04:46:19;-6.40;99.90
16801;DHT22;8518;53.236;10.384;2022-12-13T04:48:45;-6.50;99.90
16801;DHT22;8518;53.236;10.384;2022-12-13T04:51:11;-6.50;99.90
16801;DHT22;8518;53.236;10.384;2022-12-13T04:56:04;-6.50;99.90
16801;DHT22;8518;53.236;10.384;2022-12-13T04:58:30;-6.40;99.90
16801;DHT22;8518;53.236;10.384;2022-12-13T05:00:55;-6.40;99.90
16801;DHT22;8518;53.236;10.384;2022-12-13T05:03:22;-6.30;99.90
16801;DHT22;8518;53.236;10.384;2022-12-13T05:05:47;-6.30;99.90
16801;DHT22;8518;53.236;10.384;2022-12-13T05:08:13;-6.20;99.90
16801;DHT22;8518;53.236;10.384;2022-12-13T05:10:39;-6.20;99.90
16801;DHT22;8518;53.236;10.384;2022-12-13T05:13:05;-6.20;99.90
16801;DHT22;8518;53.236;10.384;2022-12-13T05:15:31;-6.10;99.90
16801;DHT22;8518;53.236;10.384;2022-12-13T05:18:04;-6.00;99.90
16801;DHT22;8518;53.236;10.384;2022-12-13T05:20:30;-5.90;99.90
16801;DHT22;8518;53.236;10.384;2022-12-13T05:22:56;-5.80;99.90
16801;DHT22;8518;53.236;10.384;2022-12-13T05:25:23;-5.70;99.90
16801;DHT22;8518;53.236;10.384;2022-12-13T05:27:49;-5.60;99.90
16801;DHT22;8518;53.236;10.384;2022-12-13T05:30:15;-5.70;99.90
16801;DHT22;8518;53.236;10.384;2022-12-13T05:32:41;-5.70;99.90
16801;DHT22;8518;53.236;10.384;2022-12-13T05:35:07;-5.70;99.90
16801;DHT22;8518;53.236;10.384;2022-12-13T05:37:32;-5.70;99.90
16801;DHT22;8518;53.236;10.384;2022-12-13T05:39:58;-5.60;99.90
16801;DHT22;8518;53.236;10.384;2022-12-13T05:42:24;-5.60;99.90
16801;DHT22;8518;53.236;10.384;2022-12-13T05:44:51;-5.60;99.90
16801;DHT22;8518;53.236;10.384;2022-12-13T05:47:17;-5.70;99.90
16801;DHT22;8518;53.236;10.384;2022-12-13T05:49:44;-5.70;99.90
16801;DHT22;8518;53.236;10.384;2022-12-13T05:52:17;-5.70;99.90
16801;DHT22;8518;53.236;10.384;2022-12-13T05:54:43;-5.70;99.90
16801;DHT22;8518;53.236;10.384;2022-12-13T05:57:12;-5.80;99.90
16801;DHT22;8518;53.236;10.384;2022-12-13T05:59:37;-5.80;99.90
16801;DHT22;8518;53.236;10.384;2022-12-13T06:02:03;-5.80;99.90
16801;DHT22;8518;53.236;10.384;2022-12-13T06:04:29;-5.90;99.90
16801;DHT22;8518;53.236;10.384;2022-12-13T06:06:55;-5.90;99.90
16801;DHT22;8518;53.236;10.384;2022-12-13T06:09:20;-5.90;99.90
16801;DHT22;8518;53.236;10.384;2022-12-13T06:11:47;-6.00;99.90
16801;DHT22;8518;53.236;10.384;2022-12-13T06:14:14;-5.90;99.90
16801;DHT22;8518;53.236;10.384;2022-12-13T06:16:39;-5.90;99.90
16801;DHT22;8518;53.236;10.384;2022-12-13T06:19:05;-4.20;99.90
16801;DHT22;8518;53.236;10.384;2022-12-13T06:21:34;-5.70;99.90
16801;DHT22;8518;53.236;10.384;2022-12-13T06:23:59;-5.60;99.90
16801;DHT22;8518;53.236;10.384;2022-12-13T06:26:25;-5.90;99.90
16801;DHT22;8518;53.236;10.384;2022-12-13T06:28:51;-5.40;99.90
16801;DHT22;8518;53.236;10.384;2022-12-13T06:31:16;-5.40;99.90
16801;DHT22;8518;53.236;10.384;2022-12-13T06:33:42;-5.40;99.90
16801;DHT22;8518;53.236;10.384;2022-12-13T06:36:09;-5.40;99.90
16801;DHT22;8518;53.236;10.384;2022-12-13T06:38:34;-5.30;99.90
16801;DHT22;8518;53.236;10.384;2022-12-13T06:41:12;-5.30;99.90
16801;DHT22;8518;53.236;10.384;2022-12-13T06:43:40;-5.30;99.90
16801;DHT22;8518;53.236;10.384;2022-12-13T06:46:07;-5.30;99.90
16801;DHT22;8518;53.236;10.384;2022-12-13T06:48:32;-5.30;99.90
16801;DHT22;8518;53.236;10.384;2022-12-13T06:50:59;-5.30;99.90
16801;DHT22;8518;53.236;10.384;2022-12-13T06:53:26;-5.30;99.90
16801;DHT22;8518;53.236;10.384;2022-12-13T06:55:51;-5.30;99.90
16801;DHT22;8518;53.236;10.384;2022-12-13T06:58:17;-5.30;99.90
16801;DHT22;8518;53.236;10.384;2022-12-13T07:00:42;-5.20;99.90
16801;DHT22;8518;53.236;10.384;2022-12-13T07:03:10;-5.10;99.90
16801;DHT22;8518;53.236;10.384;2022-12-13T07:05:39;-5.10;99.90
16801;DHT22;8518;53.236;10.384;2022-12-13T07:08:05;-5.00;99.90
16801;DHT22;8518;53.236;10.384;2022-12-13T07:10:31;-5.00;99.90
16801;DHT22;8518;53.236;10.384;2022-12-13T07:12:57;-4.90;99.90
16801;DHT22;8518;53.236;10.384;2022-12-13T07:15:23;-4.80;99.90
16801;DHT22;8518;53.236;10.384;2022-12-13T07:17:49;-4.70;99.90
16801;DHT22;8518;53.236;10.384;2022-12-13T07:20:15;-4.70;99.90
16801;DHT22;8518;53.236;10.384;2022-12-13T07:22:41;-4.60;99.90
16801;DHT22;8518;53.236;10.384;2022-12-13T07:25:07;-4.60;99.90
16801;DHT22;8518;53.236;10.384;2022-12-13T07:27:33;-4.50;99.90
16801;DHT22;8518;53.236;10.384;2022-12-13T07:29:59;-4.50;99.90
16801;DHT22;8518;53.236;10.384;2022-12-13T07:32:25;-4.40;99.90
16801;DHT22;8518;53.236;10.384;2022-12-13T07:34:52;-4.40;99.90
16801;DHT22;8518;53.236;10.384;2022-12-13T07:37:18;-4.40;99.90
16801;DHT22;8518;53.236;10.384;2022-12-13T07:39:44;-4.40;99.90
16801;DHT22;8518;53.236;10.384;2022-12-13T07:42:09;-4.40;99.90
16801;DHT22;8518;53.236;10.384;2022-12-13T07:44:35;-4.30;99.90
16801;DHT22;8518;53.236;10.384;2022-12-13T07:47:04;-4.40;99.90
16801;DHT22;8518;53.236;10.384;2022-12-13T07:49:30;-4.40;99.90
16801;DHT22;8518;53.236;10.384;2022-12-13T07:51:56;-4.40;99.90
16801;DHT22;8518;53.236;10.384;2022-12-13T07:54:21;-4.40;99.90
16801;DHT22;8518;53.236;10.384;2022-12-13T07:56:47;-4.40;99.90
16801;DHT22;8518;53.236;10.384;2022-12-13T07:59:12;-4.40;99.90
16801;DHT22;8518;53.236;10.384;2022-12-13T08:01:38;-4.40;99.90
16801;DHT22;8518;53.236;10.384;2022-12-13T08:04:04;-4.40;99.90
16801;DHT22;8518;53.236;10.384;2022-12-13T08:06:34;-4.40;99.90
16801;DHT22;8518;53.236;10.384;2022-12-13T08:09:01;-4.30;99.90
16801;DHT22;8518;53.236;10.384;2022-12-13T08:11:27;-4.20;99.90
16801;DHT22;8518;53.236;10.384;2022-12-13T08:13:53;-4.10;99.90
16801;DHT22;8518;53.236;10.384;2022-12-13T08:16:19;-4.10;99.90
16801;DHT22;8518;53.236;10.384;2022-12-13T08:18:45;-4.00;99.90
16801;DHT22;8518;53.236;10.384;2022-12-13T08:21:12;-3.90;99.90
16801;DHT22;8518;53.236;10.384;2022-12-13T08:23:38;-3.90;99.90
16801;DHT22;8518;53.236;10.384;2022-12-13T08:26:04;-3.90;99.90
16801;DHT22;8518;53.236;10.384;2022-12-13T08:28:31;-3.90;99.90
16801;DHT22;8518;53.236;10.384;2022-12-13T08:31:06;-3.90;99.90
16801;DHT22;8518;53.236;10.384;2022-12-13T08:33:33;-3.90;99.90
16801;DHT22;8518;53.236;10.384;2022-12-13T08:36:09;-3.80;99.90
16801;DHT22;8518;53.236;10.384;2022-12-13T08:38:36;-3.90;99.90
16801;DHT22;8518;53.236;10.384;2022-12-13T08:41:02;-3.20;99.90
16801;DHT22;8518;53.236;10.384;2022-12-13T08:43:31;-1.90;99.90
16801;DHT22;8518;53.236;10.384;2022-12-13T08:45:57;-0.30;99.90
16801;DHT22;8518;53.236;10.384;2022-12-13T08:48:22;1.20;99.90
16801;DHT22;8518;53.236;10.384;2022-12-13T08:50:48;2.60;99.90
16801;DHT22;8518;53.236;10.384;2022-12-13T08:53:13;3.90;99.90
16801;DHT22;8518;53.236;10.384;2022-12-13T08:55:39;5.00;99.90
16801;DHT22;8518;53.236;10.384;2022-12-13T08:58:05;6.60;99.90
16801;DHT22;8518;53.236;10.384;2022-12-13T09:00:33;7.10;99.90
16801;DHT22;8518;53.236;10.384;2022-12-13T09:03:03;8.00;99.90
16801;DHT22;8518;53.236;10.384;2022-12-13T09:05:29;8.60;97.40
16801;DHT22;8518;53.236;10.384;2022-12-13T09:07:56;9.10;94.00
16801;DHT22;8518;53.236;10.384;2022-12-13T09:10:23;9.40;92.70
16801;DHT22;8518;53.236;10.384;2022-12-13T09:12:49;9.70;92.10
16801;DHT22;8518;53.236;10.384;2022-12-13T09:15:15;9.80;90.00
16801;DHT22;8518;53.236;10.384;2022-12-13T09:17:41;9.60;90.10
16801;DHT22;8518;53.236;10.384;2022-12-13T09:20:08;9.30;90.80
16801;DHT22;8518;53.236;10.384;2022-12-13T09:22:35;9.40;90.20
16801;DHT22;8518;53.236;10.384;2022-12-13T09:25:05;9.50;89.60
16801;DHT22;8518;53.236;10.384;2022-12-13T09:27:31;9.60;88.40
16801;DHT22;8518;53.236;10.384;2022-12-13T09:29:57;9.60;87.80
16801;DHT22;8518;53.236;10.384;2022-12-13T09:32:23;9.80;87.60
16801;DHT22;8518;53.236;10.384;2022-12-13T09:34:52;10.10;87.60
16801;DHT22;8518;53.236;10.384;2022-12-13T09:37:18;10.10;84.90
16801;DHT22;8518;53.236;10.384;2022-12-13T09:39:44;10.10;86.30
16801;DHT22;8518;53.236;10.384;2022-12-13T09:42:22;10.30;85.10
16801;DHT22;8518;53.236;10.384;2022-12-13T09:44:58;10.60;83.00
16801;DHT22;8518;53.236;10.384;2022-12-13T09:47:37;10.60;83.00
16801;DHT22;8518;53.236;10.384;2022-12-13T09:50:21;11.00;82.30
16801;DHT22;8518;53.236;10.384;2022-12-13T09:52:48;11.30;79.90
16801;DHT22;8518;53.236;10.384;2022-12-13T09:55:33;11.30;81.20
16801;DHT22;8518;53.236;10.384;2022-12-13T09:58:06;11.30;79.10
16801;DHT22;8518;53.236;10.384;2022-12-13T10:00:35;11.30;80.20
16801;DHT22;8518;53.236;10.384;2022-12-13T10:03:01;11.10;78.20
16801;DHT22;8518;53.236;10.384;2022-12-13T10:05:35;11.30;79.40
16801;DHT22;8518;53.236;10.384;2022-12-13T10:08:12;11.60;78.40
16801;DHT22;8518;53.236;10.384;2022-12-13T10:10:39;11.40;79.60
16801;DHT22;8518;53.236;10.384;2022-12-13T10:15:49;10.20;83.40
16801;DHT22;8518;53.236;10.384;2022-12-13T10:18:24;10.20;84.50
16801;DHT22;8518;53.236;10.384;2022-12-13T10:20:52;10.60;83.40
16801;DHT22;8518;53.236;10.384;2022-12-13T10:23:18;11.30;81.10
16801;DHT22;8518;53.236;10.384;2022-12-13T10:25:52;11.80;81.10
16801;DHT22;8518;53.236;10.384;2022-12-13T10:28:28;12.50;79.40
16801;DHT22;8518;53.236;10.384;2022-12-13T10:30:55;12.90;76.90
16801;DHT22;8518;53.236;10.384;2022-12-13T10:33:30;13.10;76.00
16801;DHT22;8518;53.236;10.384;2022-12-13T10:36:14;13.10;75.30
16801;DHT22;8518;53.236;10.384;2022-12-13T10:38:43;13.30;74.60
16801;DHT22;8518;53.236;10.384;2022-12-13T10:41:35;13.60;73.90
16801;DHT22;8518;53.236;10.384;2022-12-13T10:46:33;14.00;71.00
16801;DHT22;8518;53.236;10.384;2022-12-13T10:48:59;14.30;70.10
16801;DHT22;8518;53.236;10.384;2022-12-13T10:51:25;14.70;70.90
16801;DHT22;8518;53.236;10.384;2022-12-13T10:53:55;14.80;68.20
16801;DHT22;8518;53.236;10.384;2022-12-13T10:56:44;15.00;69.80
16801;DHT22;8518;53.236;10.384;2022-12-13T10:59:32;15.00;68.70
16801;DHT22;8518;53.236;10.384;2022-12-13T11:02:00;15.60;66.80
16801;DHT22;8518;53.236;10.384;2022-12-13T11:04:32;16.10;66.00
16801;DHT22;8518;53.236;10.384;2022-12-13T11:09:48;17.40;61.40
16801;DHT22;8518;53.236;10.384;2022-12-13T11:12:17;17.90;59.60
16801;DHT22;8518;53.236;10.384;2022-12-13T11:15:07;18.40;57.50
16801;DHT22;8518;53.236;10.384;2022-12-13T11:17:46;18.80;56.40
16801;DHT22;8518;53.236;10.384;2022-12-13T11:20:36;19.10;54.60
16801;DHT22;8518;53.236;10.384;2022-12-13T11:23:25;19.10;53.90
16801;DHT22;8518;53.236;10.384;2022-12-13T11:25:57;19.00;53.50
16801;DHT22;8518;53.236;10.384;2022-12-13T11:31:39;18.90;52.70
16801;DHT22;8518;53.236;10.384;2022-12-13T11:42:44;18.70;52.00
16801;DHT22;8518;53.236;10.384;2022-12-13T11:45:19;18.80;52.10
16801;DHT22;8518;53.236;10.384;2022-12-13T11:48:01;18.70;52.30
16801;DHT22;8518;53.236;10.384;2022-12-13T11:50:41;18.30;51.70
16801;DHT22;8518;53.236;10.384;2022-12-13T12:01:16;16.10;55.70
16801;DHT22;8518;53.236;10.384;2022-12-13T12:03:57;15.70;55.80
16801;DHT22;8518;53.236;10.384;2022-12-13T12:06:31;15.30;57.30
16801;DHT22;8518;53.236;10.384;2022-12-13T12:09:08;15.10;57.60
16801;DHT22;8518;53.236;10.384;2022-12-13T12:11:52;15.60;57.30
16801;DHT22;8518;53.236;10.384;2022-12-13T12:17:13;16.50;56.20
16801;DHT22;8518;53.236;10.384;2022-12-13T12:19:44;17.20;55.40
16801;DHT22;8518;53.236;10.384;2022-12-13T12:53:04;7.20;78.70
16801;DHT22;8518;53.236;10.384;2022-12-13T12:58:30;5.50;93.30
16801;DHT22;8518;53.236;10.384;2022-12-13T13:03:59;4.20;98.80
16801;DHT22;8518;53.236;10.384;2022-12-13T13:06:32;3.80;99.90
16801;DHT22;8518;53.236;10.384;2022-12-13T13:09:07;3.50;99.90
16801;DHT22;8518;53.236;10.384;2022-12-13T13:11:38;3.20;99.90
16801;DHT22;8518;53.236;10.384;2022-12-13T13:16:51;2.80;99.90
16801;DHT22;8518;53.236;10.384;2022-12-13T13:21:50;2.50;99.90
16801;DHT22;8518;53.236;10.384;2022-12-13T13:26:56;2.60;99.90
16801;DHT22;8518;53.236;10.384;2022-12-13T13:32:02;5.20;99.90
16801;DHT22;8518;53.236;10.384;2022-12-13T13:34:35;6.60;99.90
16801;DHT22;8518;53.236;10.384;2022-12-13T13:54:38;8.70;94.40
16801;DHT22;8518;53.236;10.384;2022-12-13T14:08:29;8.20;94.50
16801;DHT22;8518;53.236;10.384;2022-12-13T14:11:18;7.80;94.50
16801;DHT22;8518;53.236;10.384;2022-12-13T14:14:08;7.30;95.70
16801;DHT22;8518;53.236;10.384;2022-12-13T14:19:49;6.40;96.40
16801;DHT22;8518;53.236;10.384;2022-12-13T14:22:41;5.90;97.80
16801;DHT22;8518;53.236;10.384;2022-12-13T14:31:17;4.80;99.90
16801;DHT22;8518;53.236;10.384;2022-12-13T14:33:45;4.70;99.90
16801;DHT22;8518;53.236;10.384;2022-12-13T14:36:24;4.50;99.90
16801;DHT22;8518;53.236;10.384;2022-12-13T14:38:58;4.10;99.90
16801;DHT22;8518;53.236;10.384;2022-12-13T14:41:25;3.60;99.90
16801;DHT22;8518;53.236;10.384;2022-12-13T14:43:50;3.20;99.90
16801;DHT22;8518;53.236;10.384;2022-12-13T14:46:16;2.70;99.90
16801;DHT22;8518;53.236;10.384;2022-12-13T14:48:49;2.20;99.90
16801;DHT22;8518;53.236;10.384;2022-12-13T14:51:34;1.80;99.90
16801;DHT22;8518;53.236;10.384;2022-12-13T14:54:03;1.50;99.90
16801;DHT22;8518;53.236;10.384;2022-12-13T14:56:29;1.00;99.90
16801;DHT22;8518;53.236;10.384;2022-12-13T14:59:09;0.70;99.90
16801;DHT22;8518;53.236;10.384;2022-12-13T15:01:37;0.40;99.90
16801;DHT22;8518;53.236;10.384;2022-12-13T15:06:47;-0.10;99.90
16801;DHT22;8518;53.236;10.384;2022-12-13T15:09:14;-0.30;99.90
16801;DHT22;8518;53.236;10.384;2022-12-13T15:11:41;-0.40;99.90
16801;DHT22;8518;53.236;10.384;2022-12-13T15:14:19;-0.50;99.90
16801;DHT22;8518;53.236;10.384;2022-12-13T15:16:49;-0.60;99.90
16801;DHT22;8518;53.236;10.384;2022-12-13T15:19:18;-0.80;99.90
16801;DHT22;8518;53.236;10.384;2022-12-13T15:21:59;-0.90;99.90
16801;DHT22;8518;53.236;10.384;2022-12-13T15:24:28;-1.00;99.90
16801;DHT22;8518;53.236;10.384;2022-12-13T15:26:56;-1.00;99.90
16801;DHT22;8518;53.236;10.384;2022-12-13T15:29:24;-1.10;99.90
16801;DHT22;8518;53.236;10.384;2022-12-13T15:31:51;-1.20;99.90
16801;DHT22;8518;53.236;10.384;2022-12-13T15:36:57;-1.30;99.90
16801;DHT22;8518;53.236;10.384;2022-12-13T15:39:24;-1.40;99.90
16801;DHT22;8518;53.236;10.384;2022-12-13T15:41:50;-1.40;99.90
16801;DHT22;8518;53.236;10.384;2022-12-13T15:44:19;-1.50;99.90
16801;DHT22;8518;53.236;10.384;2022-12-13T15:46:49;-1.50;99.90
16801;DHT22;8518;53.236;10.384;2022-12-13T15:51:56;-1.70;99.90
16801;DHT22;8518;53.236;10.384;2022-12-13T15:54:22;-1.80;99.90
16801;DHT22;8518;53.236;10.384;2022-12-13T15:59:39;-1.90;99.90
16801;DHT22;8518;53.236;10.384;2022-12-13T16:02:20;-2.00;99.90
16801;DHT22;8518;53.236;10.384;2022-12-13T16:04:47;-2.00;99.90
16801;DHT22;8518;53.236;10.384;2022-12-13T16:07:23;-1.60;99.90
16801;DHT22;8518;53.236;10.384;2022-12-13T16:09:52;-2.00;99.90
16801;DHT22;8518;53.236;10.384;2022-12-13T16:13:04;-2.10;99.90
16801;DHT22;8518;53.236;10.384;2022-12-13T16:15:22;-2.10;99.90
16801;DHT22;8518;53.236;10.384;2022-12-13T16:17:50;-2.20;99.90
16801;DHT22;8518;53.236;10.384;2022-12-13T16:20:17;-2.20;99.90
16801;DHT22;8518;53.236;10.384;2022-12-13T16:22:43;-2.20;99.90
16801;DHT22;8518;53.236;10.384;2022-12-13T16:25:14;-2.20;99.90
16801;DHT22;8518;53.236;10.384;2022-12-13T16:27:40;-2.20;99.90
16801;DHT22;8518;53.236;10.384;2022-12-13T16:33:17;-2.30;99.90
16801;DHT22;8518;53.236;10.384;2022-12-13T16:35:42;-2.30;99.90
16801;DHT22;8518;53.236;10.384;2022-12-13T16:38:10;-2.40;99.90
16801;DHT22;8518;53.236;10.384;2022-12-13T16:40:36;-2.50;99.90
16801;DHT22;8518;53.236;10.384;2022-12-13T16:43:04;-2.50;99.90
16801;DHT22;8518;53.236;10.384;2022-12-13T16:45:36;-2.60;99.90
16801;DHT22;8518;53.236;10.384;2022-12-13T16:48:03;-2.60;99.90
16801;DHT22;8518;53.236;10.384;2022-12-13T16:50:30;-2.60;99.90
16801;DHT22;8518;53.236;10.384;2022-12-13T16:52:56;-2.60;99.90
16801;DHT22;8518;53.236;10.384;2022-12-13T16:55:22;-2.70;99.90
16801;DHT22;8518;53.236;10.384;2022-12-13T16:57:58;-2.70;99.90
16801;DHT22;8518;53.236;10.384;2022-12-13T17:00:24;-2.70;99.90
16801;DHT22;8518;53.236;10.384;2022-12-13T17:02:51;-2.70;99.90
16801;DHT22;8518;53.236;10.384;2022-12-13T17:05:18;-2.70;99.90
16801;DHT22;8518;53.236;10.384;2022-12-13T17:07:43;-2.80;99.90
16801;DHT22;8518;53.236;10.384;2022-12-13T17:10:09;-2.80;99.90
16801;DHT22;8518;53.236;10.384;2022-12-13T17:12:35;-2.80;99.90
16801;DHT22;8518;53.236;10.384;2022-12-13T17:15:01;-2.80;99.90
16801;DHT22;8518;53.236;10.384;2022-12-13T17:17:27;-2.90;99.90
16801;DHT22;8518;53.236;10.384;2022-12-13T17:19:52;-2.90;99.90
16801;DHT22;8518;53.236;10.384;2022-12-13T17:22:18;-2.90;99.90
16801;DHT22;8518;53.236;10.384;2022-12-13T17:24:44;-2.90;99.90
16801;DHT22;8518;53.236;10.384;2022-12-13T17:27:10;-2.90;99.90
16801;DHT22;8518;53.236;10.384;2022-12-13T17:29:35;-2.90;99.90
16801;DHT22;8518;53.236;10.384;2022-12-13T17:32:02;-2.90;99.90
16801;DHT22;8518;53.236;10.384;2022-12-13T17:34:28;-2.90;99.90
16801;DHT22;8518;53.236;10.384;2022-12-13T17:36:54;-3.00;99.90
16801;DHT22;8518;53.236;10.384;2022-12-13T17:39:20;-3.00;99.90
16801;DHT22;8518;53.236;10.384;2022-12-13T17:41:45;-3.00;99.90
16801;DHT22;8518;53.236;10.384;2022-12-13T17:44:11;-3.00;99.90
16801;DHT22;8518;53.236;10.384;2022-12-13T17:46:37;-3.00;99.90
16801;DHT22;8518;53.236;10.384;2022-12-13T17:49:02;-3.00;99.90
16801;DHT22;8518;53.236;10.384;2022-12-13T17:51:28;-3.00;99.90
16801;DHT22;8518;53.236;10.384;2022-12-13T17:53:54;-3.00;99.90
16801;DHT22;8518;53.236;10.384;2022-12-13T17:56:20;-3.10;99.90
16801;DHT22;8518;53.236;10.384;2022-12-13T17:58:46;-3.10;99.90
16801;DHT22;8518;53.236;10.384;2022-12-13T18:01:13;-3.10;99.90
16801;DHT22;8518;53.236;10.384;2022-12-13T18:03:39;-3.10;99.90
16801;DHT22;8518;53.236;10.384;2022-12-13T18:06:05;-3.20;99.90
16801;DHT22;8518;53.236;10.384;2022-12-13T18:08:37;-3.20;99.90
16801;DHT22;8518;53.236;10.384;2022-12-13T18:11:04;-3.20;99.90
16801;DHT22;8518;53.236;10.384;2022-12-13T18:13:30;-3.20;99.90
16801;DHT22;8518;53.236;10.384;2022-12-13T18:15:56;-3.30;99.90
16801;DHT22;8518;53.236;10.384;2022-12-13T18:18:22;-3.30;99.90
16801;DHT22;8518;53.236;10.384;2022-12-13T18:20:48;-3.40;99.90
16801;DHT22;8518;53.236;10.384;2022-12-13T18:23:14;-3.40;99.90
16801;DHT22;8518;53.236;10.384;2022-12-13T18:25:41;-3.40;99.90